EW8494 Weather Reports


Display with metric or nautical units.
time (UTC)temp
F
wind
direction
speed
MPH
gust
MPH
rain 1hr
in
rain 24hr
in
rain mn
in
humidity
%
barometer
mb
20191024012519 54 225 2.0 3.0 0.00 0.00 0.00 56 1029.5
20191024011519 56 225 1.0 3.0 0.00 0.00 0.00 53 1029.4
20191024010519 56 225 2.0 3.0 0.00 0.00 0.00 51 1029.6
20191024005519 57 225 1.0 2.0 0.00 0.00 0.00 50 1029.7
20191024004519 58 225 2.0 3.0 0.00 0.00 0.00 48 1029.8
20191024003519 59 225 3.0 4.0 0.00 0.00 0.00 44 1030.0
20191024002519 60 225 3.0 5.0 0.00 0.00 0.00 45 1029.9
20191024001518 61 225 4.0 5.0 0.00 0.00 0.00 43 1030.1
20191024000519 61 225 3.0 6.0 0.00 0.00 0.00 40 1030.0
20191023235519 62 225 4.0 7.0 0.00 0.00 0.00 39 1030.0
20191023234519 62 247 3.0 5.0 0.00 0.00 0.00 38 1030.1
20191023233519 62 247 3.0 8.0 0.00 0.00 0.00 38 1030.1
20191023232518 62 247 3.0 5.0 0.00 0.00 0.00 38 1030.0
20191023231519 62 247 3.0 5.0 0.00 0.00 0.00 39 1030.2
20191023230519 63 247 2.0 6.0 0.00 0.00 0.00 38 1030.3
20191023225519 63 270 3.0 6.0 0.00 0.00 0.00 38 1030.3
20191023224519 62 270 1.0 3.0 0.00 0.00 0.00 38 1030.5
20191023223519 62 315 2.0 4.0 0.00 0.00 0.00 39 1030.3
20191023222519 62 315 2.0 8.0 0.00 0.00 0.00 40 1030.4
20191023221519 62 337 1.0 2.0 0.00 0.00 0.00 42 1030.4
20191023220519 61 337 1.0 2.0 0.00 0.00 0.00 42 1030.4
20191023215519 61 22 2.0 4.0 0.00 0.00 0.00 43 1030.4
20191023214519 60 0.0 1.0 0.00 0.00 0.00 44 1030.5
20191023213518 60 22 1.0 3.0 0.00 0.00 0.00 44 1030.7
20191023212519 61 0 1.0 3.0 0.00 0.00 0.00 45 1030.7
20191023211518 60 0 2.0 5.0 0.00 0.00 0.00 43 1030.6
20191023210518 60 0 2.0 4.0 0.00 0.00 0.00 45 1030.6
20191023205518 60 0 3.0 5.0 0.00 0.00 0.00 46 1030.5
20191023204519 59 0 2.0 4.0 0.00 0.00 0.00 47 1030.6
20191023203519 59 0 3.0 6.0 0.00 0.00 0.00 47 1030.7
20191023202519 58 0 1.0 3.0 0.00 0.00 0.00 47 1030.9
20191023201519 58 45 2.0 4.0 0.00 0.00 0.00 49 1030.8
20191023200518 57 45 2.0 4.0 0.00 0.00 0.00 52 1030.8
20191023195519 57 67 1.0 3.0 0.00 0.00 0.00 50 1031.0
20191023194519 57 180 4.0 7.0 0.00 0.00 0.00 51 1030.9
20191023193519 57 180 2.0 5.0 0.00 0.00 0.00 52 1030.8
20191023192518 56 180 1.0 4.0 0.00 0.00 0.00 57 1030.9
20191023191519 55 180 3.0 6.0 0.00 0.00 0.00 59 1031.1
20191023190518 55 180 4.0 7.0 0.00 0.00 0.00 60 1031.2
20191023185520 54 180 3.0 6.0 0.00 0.00 0.00 61 1031.3
20191023184518 54 157 4.0 6.0 0.00 0.00 0.00 62 1031.3
20191023183518 53 202 4.0 5.0 0.00 0.00 0.00 60 1031.3
20191023182518 53 202 3.0 5.0 0.00 0.00 0.00 62 1031.3
20191023181518 53 202 3.0 6.0 0.00 0.00 0.00 64 1031.2
20191023180518 52 202 3.0 6.0 0.00 0.00 0.00 65 1031.2
20191023175518 52 202 3.0 5.0 0.00 0.00 0.00 66 1031.2
20191023174518 51 202 5.0 7.0 0.00 0.00 0.00 66 1031.1
20191023173518 50 202 4.0 7.0 0.00 0.00 0.00 65 1031.1
20191023172518 50 180 2.0 4.0 0.00 0.00 0.00 70 1031.1
20191023171518 49 180 3.0 4.0 0.00 0.00 0.00 73 1031.1
20191023170519 49 180 3.0 4.0 0.00 0.00 0.00 75 1031.0
20191023165518 48 292 3.0 5.0 0.00 0.00 0.00 75 1031.0
20191023164518 47 22 1.0 3.0 0.00 0.00 0.00 74 1030.9
20191023163518 46 22 1.0 2.0 0.00 0.00 0.00 77 1030.7
20191023162518 45 22 1.0 2.0 0.00 0.00 0.00 78 1030.5
20191023085517 49 247 6.0 11.0 0.00 0.00 0.00 67 1026.4
20191023084518 47 270 5.0 9.0 0.00 0.00 0.00 70 1026.4
20191023083517 48 270 6.0 8.0 0.00 0.00 0.00 69 1026.5
20191023082517 48 247 3.0 5.0 0.00 0.00 0.00 69 1026.3
20191023081517 48 247 2.0 4.0 0.00 0.00 0.00 69 1026.1
20191023080519 48 247 2.0 4.0 0.00 0.00 0.00 69 1026.2
20191023075517 49 247 3.0 7.0 0.00 0.00 0.00 68 1026.1
20191023074519 49 0.0 2.0 0.00 0.00 0.00 68 1025.9
20191023073517 49 247 3.0 5.0 0.00 0.00 0.00 68 1025.8
20191023072520 49 270 4.0 7.0 0.00 0.00 0.00 70 1025.8
20191023071519 48 292 4.0 8.0 0.00 0.00 0.00 71 1025.7
20191023070517 49 292 3.0 4.0 0.00 0.00 0.00 70 1025.8
20191023065517 49 292 3.0 4.0 0.00 0.00 0.00 69 1025.8
20191023064519 50 292 5.0 8.0 0.00 0.00 0.00 67 1025.9
20191023063519 50 292 6.0 9.0 0.00 0.00 0.00 67 1026.0
20191023062517 51 315 4.0 8.0 0.00 0.00 0.00 66 1025.8
20191023061520 50 315 5.0 5.0 0.00 0.00 0.00 68 1025.4
20191023060519 51 292 3.0 5.0 0.00 0.00 0.00 66 1025.0
20191023055518 52 315 2.0 4.0 0.00 0.00 0.00 63 1025.0
20191023054519 53 67 1.0 3.0 0.00 0.00 0.00 62 1024.9
20191023053518 53 22 3.0 5.0 0.00 0.00 0.00 61 1025.0
20191023052518 53 292 9.0 16.0 0.00 0.00 0.00 61 1024.4
20191023051523 53 292 9.0 14.0 0.00 0.00 0.00 60 1024.1
20191023050519 54 292 10.0 15.0 0.00 0.00 0.00 59 1023.8
20191023045518 55 292 12.0 20.0 0.00 0.00 0.00 57 1023.8
20191023044518 55 270 15.0 22.0 0.00 0.00 0.00 55 1023.9
20191023043519 56 270 14.0 23.0 0.00 0.00 0.00 53 1023.7
20191023042518 56 292 14.0 21.0 0.00 0.00 0.00 53 1023.5
20191023041520 56 270 13.0 26.0 0.00 0.00 0.00 53 1023.6
20191023040519 55 292 10.0 17.0 0.00 0.00 0.00 55 1023.7
20191023035518 56 247 10.0 18.0 0.00 0.00 0.00 51 1023.4
20191023034518 56 247 9.0 16.0 0.00 0.00 0.00 50 1023.3
20191023033518 56 270 12.0 18.0 0.00 0.00 0.00 49 1023.1
20191023032519 56 292 14.0 23.0 0.00 0.00 0.00 49 1022.8
20191023031518 57 315 11.0 19.0 0.00 0.00 0.00 49 1022.6
20191023030519 57 315 13.0 20.0 0.00 0.00 0.00 47 1022.7
20191023025518 57 292 13.0 20.0 0.00 0.00 0.00 46 1022.8
20191023024519 57 315 12.0 21.0 0.00 0.00 0.00 47 1022.8
20191023023517 58 315 14.0 21.0 0.00 0.00 0.00 47 1022.4
20191023022518 58 315 17.0 26.0 0.00 0.00 0.00 47 1021.9
20191023021519 58 315 16.0 26.0 0.00 0.00 0.00 48 1021.6
20191023020517 58 337 11.0 16.0 0.00 0.00 0.00 50 1021.7
20191023015518 58 337 10.0 15.0 0.00 0.00 0.00 52 1021.9
20191023014518 58 315 11.0 15.0 0.00 0.00 0.00 54 1022.2
20191023013519 59 337 10.0 20.0 0.00 0.00 0.00 53 1022.1